Time;durP1;ratioP1;P1;durP2;ratioP2;P2;SDS_P1;SDS_P2;PMS_P1;PMS_P2;Temp;Humidity;BMP_temperature;BMP_pressure;BME280_temperature;BME280_humidity;BME280_pressure;Samples;Min_cycle;Max_cycle;Signal;HPM_P1;HPM_P2
2022/10/22 00:02:20;;;;;;;23.38;11.65;;;;;;;10.17;100.00;100913.78;5015487;28;20026;-86
2022/10/22 00:04:47;;;;;;;22.88;11.20;;;;;;;9.93;100.00;100885.06;5015650;28;20062;-78
2022/10/22 00:07:14;;;;;;;19.73;11.35;;;;;;;10.09;100.00;100921.13;5015480;28;20402;-81
2022/10/22 00:09:39;;;;;;;20.40;10.77;;;;;;;10.09;100.00;100916.81;5015645;28;20026;-81
2022/10/22 00:12:05;;;;;;;25.27;10.95;;;;;;;9.91;100.00;100884.34;5015460;28;20018;-83
2022/10/22 00:14:30;;;;;;;19.55;11.63;;;;;;;10.06;100.00;100917.00;4997421;28;20176;-80
2022/10/22 00:16:56;;;;;;;24.50;12.18;;;;;;;9.94;100.00;100903.06;5015151;28;20084;-81
2022/10/22 00:19:21;;;;;;;22.15;12.18;;;;;;;10.07;100.00;100913.47;5015404;28;20025;-80
2022/10/22 00:21:46;;;;;;;22.10;11.68;;;;;;;10.05;100.00;100918.75;5015583;28;20076;-80
2022/10/22 00:24:12;;;;;;;22.42;11.75;;;;;;;9.99;100.00;100920.84;5014432;28;20033;-81
2022/10/22 00:26:39;;;;;;;21.67;12.55;;;;;;;9.99;100.00;100924.25;5015335;28;20030;-83
2022/10/22 00:29:05;;;;;;;22.17;12.15;;;;;;;9.95;100.00;100914.22;5015295;28;20022;-77
2022/10/22 00:31:30;;;;;;;23.00;11.95;;;;;;;9.91;100.00;100913.56;5014978;28;20101;-79
2022/10/22 00:33:55;;;;;;;22.40;11.30;;;;;;;9.89;100.00;100906.81;5016922;28;20022;-86
2022/10/22 00:36:21;;;;;;;20.85;12.27;;;;;;;9.90;100.00;100911.06;5014997;28;20026;-90
2022/10/22 00:38:46;;;;;;;26.33;12.00;;;;;;;9.89;100.00;100917.97;5016394;28;20065;-89
2022/10/22 00:41:11;;;;;;;25.50;12.15;;;;;;;9.90;100.00;100911.91;5018695;28;20088;-87
2022/10/22 00:43:58;;;;;;;19.90;11.00;;;;;;;9.84;100.00;100911.44;5001703;28;20030;-88
2022/10/22 00:46:23;;;;;;;21.60;11.73;;;;;;;9.79;100.00;100922.00;5016759;28;20022;-88
2022/10/22 00:48:49;;;;;;;18.55;11.35;;;;;;;9.81;100.00;100924.50;5017337;28;20041;-87
2022/10/22 00:51:14;;;;;;;19.48;11.68;;;;;;;9.79;100.00;100924.59;5015619;28;20079;-89
2022/10/22 00:53:48;;;;;;;18.90;11.20;;;;;;;9.76;100.00;100917.03;5015327;28;20113;-89
2022/10/22 00:56:14;;;;;;;23.98;12.40;;;;;;;9.67;100.00;100889.22;5015773;28;20105;-88
2022/10/22 00:58:46;;;;;;;24.90;12.07;;;;;;;9.80;100.00;100923.66;4998820;28;20037;-89
2022/10/22 01:01:16;;;;;;;39.95;13.05;;;;;;;9.81;100.00;100909.03;5017072;28;20018;-82
2022/10/22 01:03:42;;;;;;;21.85;11.18;;;;;;;9.52;100.00;100879.78;5015351;28;20175;-90
2022/10/22 01:06:13;;;;;;;22.63;11.80;;;;;;;9.77;100.00;100910.97;5015732;28;20470;-89
2022/10/22 01:09:08;;;;;;;22.27;11.57;;;;;;;9.77;100.00;100911.78;5014680;28;20382;-89
2022/10/22 01:11:45;;;;;;;21.35;11.15;;;;;;;9.76;100.00;100909.31;5014470;28;20064;-89
2022/10/22 01:14:27;;;;;;;21.70;11.95;;;;;;;9.60;100.00;100893.06;5016249;28;20026;-90
2022/10/22 01:17:03;;;;;;;21.77;11.98;;;;;;;9.43;100.00;100874.22;5014740;28;20025;-89
2022/10/22 01:19:53;;;;;;;24.02;11.52;;;;;;;9.65;100.00;100914.25;5014809;28;20029;-85
2022/10/22 01:22:37;;;;;;;22.85;11.70;;;;;;;9.61;100.00;100915.34;5014788;28;20121;-89
2022/10/22 01:25:30;;;;;;;26.75;12.30;;;;;;;9.66;100.00;100914.16;5014703;28;20033;-89
2022/10/22 01:28:16;;;;;;;21.63;10.80;;;;;;;9.59;100.00;100914.59;5014873;28;20030;-90
2022/10/22 01:30:44;;;;;;;26.30;11.65;;;;;;;9.54;100.00;100904.56;5016292;28;20377;-90
2022/10/22 01:33:14;;;;;;;21.05;11.70;;;;;;;9.51;100.00;100899.56;5014235;28;20034;-89
2022/10/22 01:35:42;;;;;;;20.65;11.55;;;;;;;9.61;100.00;100912.75;4996482;28;20038;-89
2022/10/22 01:38:13;;;;;;;25.98;12.48;;;;;;;9.39;100.00;100877.91;5014373;28;20065;-88
2022/10/22 01:40:39;;;;;;;27.63;13.98;;;;;;;9.51;100.00;100891.81;5014277;28;20075;-88
2022/10/22 01:43:07;;;;;;;35.33;14.30;;;;;;;9.67;100.00;100905.50;5015034;28;20029;-88
2022/10/22 01:48:05;;;;;;;26.00;14.27;;;;;;;9.71;100.00;100906.16;5031141;28;20045;-90
2022/10/22 01:50:44;;;;;;;26.17;13.05;;;;;;;9.69;100.00;100910.56;5016129;28;20029;-90
2022/10/22 01:53:35;;;;;;;30.20;14.07;;;;;;;9.69;100.00;100908.81;5033619;28;20029;-90
2022/10/22 01:56:22;;;;;;;29.80;13.00;;;;;;;9.70;100.00;100901.91;5038797;28;20104;-82
2022/10/22 01:58:59;;;;;;;27.88;13.55;;;;;;;9.71;100.00;100913.88;5033966;28;20025;-90
2022/10/22 02:01:57;;;;;;;31.15;13.02;;;;;;;9.72;100.00;100915.53;5035624;28;20488;-89
2022/10/22 02:04:32;;;;;;;28.00;14.75;;;;;;;9.46;100.00;100865.50;4937964;29;20433;-93
2022/10/22 02:07:03;;;;;;;32.90;15.10;;;;;;;9.51;100.00;100875.53;4938734;29;20547;-86
2022/10/22 02:09:30;;;;;;;25.40;13.77;;;;;;;9.67;100.00;100907.25;4939761;29;20051;-89
2022/10/22 02:11:58;;;;;;;30.52;14.35;;;;;;;9.64;100.00;100900.53;4938750;29;20445;-88
2022/10/22 02:14:26;;;;;;;36.97;15.52;;;;;;;9.70;100.00;100899.34;4936095;29;20472;-91
2022/10/22 02:16:53;;;;;;;32.42;14.30;;;;;;;9.67;100.00;100902.94;4935633;29;20123;-91
2022/10/22 02:19:37;;;;;;;30.40;13.90;;;;;;;9.60;100.00;100898.22;4934196;29;20031;-90
2022/10/22 02:22:03;;;;;;;28.67;13.93;;;;;;;9.51;100.00;100872.97;4934334;29;20052;-91
2022/10/22 02:24:29;;;;;;;28.20;13.10;;;;;;;9.70;100.00;100914.81;4935006;29;20454;-91
2022/10/22 02:27:08;;;;;;;37.50;15.65;;;;;;;9.74;100.00;100898.25;4935118;29;20059;-89
2022/10/22 02:29:36;;;;;;;31.70;15.85;;;;;;;9.74;100.00;100890.53;4940094;29;20136;-88
2022/10/22 02:32:05;;;;;;;35.40;14.50;;;;;;;9.82;100.00;100901.19;4940356;29;20066;-83
2022/10/22 02:34:31;;;;;;;34.47;16.15;;;;;;;9.70;100.00;100869.22;4939109;29;20032;-91
2022/10/22 02:37:00;;;;;;;34.38;15.82;;;;;;;9.76;100.00;100891.25;4935700;29;20028;-91
2022/10/22 02:39:26;;;;;;;34.72;14.35;;;;;;;9.83;100.00;100904.59;4935150;29;20076;-90
2022/10/22 02:41:51;;;;;;;37.13;15.45;;;;;;;9.76;100.00;100894.66;5010946;28;20033;-91
2022/10/22 02:44:21;;;;;;;36.28;14.55;;;;;;;9.85;100.00;100908.78;5039396;28;20037;-90
2022/10/22 02:46:47;;;;;;;33.78;14.75;;;;;;;9.71;100.00;100894.09;5028638;28;20493;-87
2022/10/22 02:49:12;;;;;;;31.20;15.27;;;;;;;9.59;100.00;100874.19;5048345;28;20048;-92
2022/10/22 02:51:37;;;;;;;37.15;15.50;;;;;;;9.71;100.00;100888.94;5049406;28;20021;-88
2022/10/22 02:54:03;;;;;;;33.20;15.10;;;;;;;9.59;100.00;100855.31;5046445;28;20026;-82
2022/10/22 02:56:31;;;;;;;39.95;16.55;;;;;;;9.90;100.00;100913.66;5041620;28;20085;-79
2022/10/22 02:58:56;;;;;;;45.63;16.20;;;;;;;9.65;100.00;100876.41;5042285;28;20164;-77
2022/10/22 03:01:22;;;;;;;39.15;16.63;;;;;;;9.73;100.00;100866.47;5047098;28;20049;-89
2022/10/22 03:03:47;;;;;;;35.92;16.88;;;;;;;10.07;100.00;100913.47;5052701;28;20040;-82
2022/10/22 03:09:59;;;;;;;;;;;;;;;10.05;100.00;100918.75;5060603;28;20056;-88
2022/10/22 03:12:25;;;;;;;38.50;16.88;;;;;;;9.99;100.00;100908.78;5056607;28;19917;-84
2022/10/22 03:14:50;;;;;;;43.85;16.98;;;;;;;10.10;100.00;100907.31;5058443;28;20044;-90
2022/10/22 03:17:15;;;;;;;38.30;16.73;;;;;;;10.14;100.00;100919.94;5049387;28;20053;-86
2022/10/22 03:19:41;;;;;;;47.15;18.83;;;;;;;9.89;100.00;100876.72;5052623;28;20084;-93
2022/10/22 03:22:14;;;;;;;42.03;17.80;;;;;;;9.52;100.00;100798.09;5052503;28;20025;-95
2022/10/22 03:24:43;;;;;;;48.97;18.85;;;;;;;10.28;100.00;100922.56;5046813;28;20076;-94
2022/10/22 03:27:09;;;;;;;48.53;17.35;;;;;;;10.28;100.00;100916.56;5042926;28;20033;-94
2022/10/22 03:29:37;;;;;;;42.92;17.77;;;;;;;10.20;100.00;100904.09;5046995;28;20021;-84
2022/10/22 03:32:03;;;;;;;57.28;19.10;;;;;;;10.35;100.00;100915.28;5045766;28;20104;-93
2022/10/22 03:34:28;;;;;;;43.70;17.05;;;;;;;10.36;100.00;100923.84;5047716;28;20025;-95
2022/10/22 03:36:55;;;;;;;42.45;17.77;;;;;;;10.36;100.00;100929.00;5042216;28;20033;-95
2022/10/22 03:39:21;;;;;;;52.17;17.38;;;;;;;10.50;100.00;100944.47;5038927;28;20032;-91
2022/10/22 03:41:48;;;;;;;49.25;16.98;;;;;;;10.27;100.00;100891.69;5038644;28;20034;-92
2022/10/22 03:44:16;;;;;;;46.72;18.02;;;;;;;10.26;100.00;100880.53;5038795;28;20443;-93
2022/10/22 03:46:41;;;;;;;47.28;17.80;;;;;;;10.50;100.00;100927.25;5037953;28;20370;-95
2022/10/22 03:49:09;;;;;;;42.38;16.63;;;;;;;10.55;100.00;100940.72;5037518;28;20029;-91
2022/10/22 03:51:35;;;;;;;55.33;17.42;;;;;;;10.65;100.00;100937.56;5037857;28;20370;-95
2022/10/22 03:54:01;;;;;;;47.17;17.33;;;;;;;10.58;100.00;100943.09;5037980;28;20026;-95
2022/10/22 03:56:26;;;;;;;43.78;16.50;;;;;;;10.49;100.00;100932.50;5038226;28;20049;-96
2022/10/22 03:58:55;;;;;;;47.88;17.20;;;;;;;10.48;100.00;100923.09;5036157;28;20543;-95
2022/10/22 04:01:20;;;;;;;61.08;18.23;;;;;;;10.57;100.00;100938.03;5037739;28;20489;-94
2022/10/22 04:03:45;;;;;;;61.70;18.33;;;;;;;10.65;100.00;100959.06;5037232;28;20057;-94
2022/10/22 04:06:12;;;;;;;49.75;18.42;;;;;;;10.63;100.00;100964.31;5038039;28;20477;-94
2022/10/22 04:08:39;;;;;;;52.03;17.00;;;;;;;10.44;100.00;100924.22;5039380;28;20061;-95
2022/10/22 04:11:12;;;;;;;59.35;18.13;;;;;;;10.24;100.00;100915.09;5040982;28;20053;-94
2022/10/22 04:13:38;;;;;;;52.90;17.67;;;;;;;10.62;100.00;100967.00;5037550;28;20023;-95
2022/10/22 04:16:17;;;;;;;51.30;16.92;;;;;;;10.52;100.00;100950.38;5037582;28;20137;-93
2022/10/22 04:18:44;;;;;;;50.65;17.45;;;;;;;10.33;100.00;100922.28;5020147;28;20033;-95
2022/10/22 04:21:11;;;;;;;55.10;17.98;;;;;;;10.62;100.00;100962.66;5038679;28;20033;-93
2022/10/22 04:23:37;;;;;;;57.00;18.35;;;;;;;10.46;100.00;100943.84;5038999;28;20075;-90
2022/10/22 04:26:06;;;;;;;51.15;18.00;;;;;;;10.41;100.00;100914.06;5043603;28;20089;-94
2022/10/22 04:28:32;;;;;;;60.15;18.38;;;;;;;10.53;100.00;100947.72;5042065;28;20037;-93
2022/10/22 04:30:57;;;;;;;56.45;17.27;;;;;;;10.67;100.00;100964.94;5023374;28;20033;-86
2022/10/22 04:33:23;;;;;;;66.20;19.10;;;;;;;10.71;100.00;100963.00;5039142;28;20088;-92
2022/10/22 04:35:48;;;;;;;62.75;19.27;;;;;;;10.72;100.00;100962.94;5038371;28;20045;-93
2022/10/22 04:38:14;;;;;;;59.47;18.25;;;;;;;10.61;100.00;100953.22;5037520;28;20083;-94
2022/10/22 04:40:40;;;;;;;56.60;17.92;;;;;;;10.51;100.00;100938.38;5037420;28;20044;-90
2022/10/22 04:43:05;;;;;;;62.80;18.17;;;;;;;10.69;100.00;100970.84;5037005;28;20025;-91
2022/10/22 04:45:32;;;;;;;52.05;17.63;;;;;;;10.66;100.00;100968.47;5040348;28;20060;-95
2022/10/22 04:47:58;;;;;;;55.05;17.58;;;;;;;10.69;100.00;100972.59;5035278;28;20041;-96
2022/10/22 04:50:23;;;;;;;64.40;16.60;;;;;;;10.65;100.00;100973.72;5039243;28;20025;-94
2022/10/22 04:52:48;;;;;;;55.33;16.05;;;;;;;10.42;100.00;100946.69;5036020;28;20053;-94
2022/10/22 04:55:14;;;;;;;58.35;17.17;;;;;;;10.58;100.00;100981.84;5035631;28;20068;-94
2022/10/22 04:57:39;;;;;;;51.13;16.33;;;;;;;10.62;100.00;100980.75;5035445;28;20112;-93
2022/10/22 05:00:05;;;;;;;66.55;17.63;;;;;;;10.63;100.00;100981.56;5035323;28;20056;-94
2022/10/22 05:02:30;;;;;;;58.22;16.70;;;;;;;10.67;100.00;100982.19;5036147;28;20100;-94
2022/10/22 05:04:56;;;;;;;60.53;17.35;;;;;;;10.68;100.00;100989.03;5035088;28;20128;-94
2022/10/22 05:07:22;;;;;;;66.55;18.00;;;;;;;10.68;100.00;100986.44;5036800;28;20044;-96
2022/10/22 05:09:48;;;;;;;64.30;18.67;;;;;;;10.77;100.00;100991.06;5035659;28;20385;-94
2022/10/22 05:12:13;;;;;;;59.55;17.55;;;;;;;10.73;100.00;100976.69;5035578;28;20022;-93
2022/10/22 05:14:38;;;;;;;61.40;18.17;;;;;;;10.76;100.00;100984.22;5035451;28;20026;-94
2022/10/22 05:17:04;;;;;;;58.92;17.80;;;;;;;10.78;100.00;100987.53;5034765;28;20488;-94
2022/10/22 05:19:30;;;;;;;64.00;18.65;;;;;;;10.75;100.00;100985.97;5018841;28;20044;-94
2022/10/22 05:21:58;;;;;;;62.03;16.85;;;;;;;10.84;100.00;100988.00;5035018;28;20060;-95
2022/10/22 05:24:25;;;;;;;67.75;17.90;;;;;;;10.86;100.00;100993.91;5035338;28;20033;-94
2022/10/22 05:26:52;;;;;;;61.13;17.45;;;;;;;10.90;100.00;100985.03;5035194;28;20029;-93
2022/10/22 05:29:18;;;;;;;66.22;18.10;;;;;;;10.68;100.00;100945.13;5035503;28;20090;-93
2022/10/22 05:31:43;;;;;;;58.28;17.27;;;;;;;10.90;100.00;100964.34;5035204;28;20025;-95
2022/10/22 05:34:09;;;;;;;62.22;18.38;;;;;;;10.94;100.00;100966.78;5035386;28;20036;-94
2022/10/22 05:36:35;;;;;;;58.15;17.73;;;;;;;11.11;100.00;100987.19;5035516;28;20021;-95
2022/10/22 05:39:00;;;;;;;61.60;17.95;;;;;;;11.13;100.00;100988.78;5035157;28;20021;-95
2022/10/22 05:41:27;;;;;;;62.90;16.35;;;;;;;11.11;100.00;100989.78;5035608;28;20022;-94
2022/10/22 05:43:57;;;;;;;53.65;15.88;;;;;;;11.14;100.00;100992.19;5035806;28;20037;-93
2022/10/22 05:46:24;;;;;;;65.40;18.55;;;;;;;11.13;100.00;100998.28;5034961;28;20044;-88
2022/10/22 05:48:55;;;;;;;56.97;18.20;;;;;;;10.98;100.00;100974.22;5034464;28;20078;-93
2022/10/22 05:51:21;;;;;;;59.80;16.57;;;;;;;11.03;100.00;100992.03;5036101;28;20068;-96
2022/10/22 05:56:22;;;;;;;64.70;17.02;;;;;;;10.91;100.00;100993.59;5024092;26;20053;-95
2022/10/22 05:58:47;;;;;;;67.45;16.52;;;;;;;10.94;100.00;101021.03;5035756;28;20025;-91
2022/10/22 06:01:20;;;;;;;59.25;15.75;;;;;;;10.94;100.00;101018.44;5034174;28;20071;-93
2022/10/22 06:03:46;;;;;;;75.82;19.08;;;;;;;10.92;100.00;101010.78;5016216;28;20029;-95
2022/10/22 06:06:18;;;;;;;58.60;16.33;;;;;;;10.91;100.00;101022.88;5034850;28;20022;-90
2022/10/22 06:08:45;;;;;;;55.58;16.50;;;;;;;10.93;100.00;101024.53;5034284;28;20448;-95
2022/10/22 06:11:10;;;;;;;57.05;14.98;;;;;;;10.90;100.00;101022.94;5033653;28;20029;-93
2022/10/22 06:13:35;;;;;;;64.38;16.00;;;;;;;10.62;100.00;100983.31;5017219;28;20427;-91
2022/10/22 06:16:01;;;;;;;55.83;15.30;;;;;;;10.88;100.00;101027.38;5016351;28;20038;-93
2022/10/22 06:18:26;;;;;;;55.92;15.75;;;;;;;10.75;100.00;101006.66;5036097;28;20379;-87
2022/10/22 06:20:51;;;;;;;55.25;14.27;;;;;;;10.86;100.00;101032.66;5033344;28;20025;-91
2022/10/22 06:23:17;;;;;;;51.80;14.85;;;;;;;10.91;100.00;101047.84;5034767;28;20104;-85
2022/10/22 06:25:42;;;;;;;58.60;15.23;;;;;;;10.52;100.00;100983.94;5033478;28;20112;-90
2022/10/22 06:28:08;;;;;;;67.88;15.75;;;;;;;10.76;100.00;101023.81;5033785;28;20017;-94
2022/10/22 06:30:33;;;;;;;61.45;15.32;;;;;;;10.93;100.00;101060.72;5039054;28;20068;-90
2022/10/22 06:32:58;;;;;;;55.63;15.48;;;;;;;10.74;100.00;101030.00;5038727;28;20107;-89
2022/10/22 06:35:24;;;;;;;66.18;14.75;;;;;;;10.75;100.00;101032.47;5037482;28;20028;-89
2022/10/22 06:37:49;;;;;;;60.28;14.98;;;;;;;10.97;100.00;101062.19;5036710;28;20088;-92
2022/10/22 06:40:15;;;;;;;56.13;14.38;;;;;;;10.90;100.00;101065.13;5034434;28;20029;-91
2022/10/22 06:42:40;;;;;;;51.58;15.38;;;;;;;11.01;100.00;101071.38;5017256;28;20037;-92
2022/10/22 06:45:07;;;;;;;48.40;14.23;;;;;;;10.86;100.00;101066.25;5033930;28;20037;-94
2022/10/22 06:47:32;;;;;;;59.47;15.27;;;;;;;10.99;100.00;101075.81;5034434;28;20113;-91
2022/10/22 06:49:57;;;;;;;52.13;14.18;;;;;;;10.95;100.00;101070.03;5038452;28;20061;-93
2022/10/22 06:52:23;;;;;;;61.92;14.95;;;;;;;10.93;100.00;101073.63;5037592;28;20025;-90
2022/10/22 06:54:54;;;;;;;53.75;15.23;;;;;;;11.04;100.00;101084.16;5037195;28;20103;-94
2022/10/22 06:57:19;;;;;;;46.38;13.50;;;;;;;11.10;100.00;101097.50;5036873;28;20112;-92
2022/10/22 06:59:45;;;;;;;44.72;12.77;;;;;;;11.11;100.00;101104.38;5043688;28;20037;-91
2022/10/22 07:02:10;;;;;;;50.63;13.88;;;;;;;10.80;100.00;101058.00;5032384;28;20033;-87
2022/10/22 07:04:36;;;;;;;54.65;14.15;;;;;;;10.79;100.00;101054.59;5033680;28;20052;-89
2022/10/22 07:07:01;;;;;;;47.83;13.00;;;;;;;11.12;100.00;101107.78;5034351;28;20032;-89
2022/10/22 07:09:26;;;;;;;52.00;13.30;;;;;;;11.13;100.00;101110.25;5034366;28;20056;-91
2022/10/22 07:11:51;;;;;;;45.78;13.27;;;;;;;11.10;100.00;101107.84;5034577;28;20442;-90
2022/10/22 07:14:17;;;;;;;46.00;12.73;;;;;;;10.89;100.00;101072.97;5034697;28;20121;-90
2022/10/22 07:16:44;;;;;;;49.30;13.10;;;;;;;11.14;100.00;101113.69;5044628;28;20109;-92
2022/10/22 07:19:10;;;;;;;46.70;12.98;;;;;;;11.25;100.00;101131.94;5040048;28;20025;-88
2022/10/22 07:21:35;;;;;;;46.17;12.70;;;;;;;11.28;100.00;101125.75;5037919;28;20492;-91
2022/10/22 07:24:00;;;;;;;45.92;12.73;;;;;;;11.30;100.00;101129.06;5037003;28;20128;-84
2022/10/22 07:26:29;;;;;;;47.92;13.18;;;;;;;11.20;100.00;101113.28;5035592;28;20025;-80
2022/10/22 07:28:55;;;;;;;45.53;12.73;;;;;;;11.18;100.00;101103.03;5032948;28;20048;-77
2022/10/22 07:31:20;;;;;;;47.85;13.95;;;;;;;11.13;100.00;101094.75;5032624;28;20025;-76
2022/10/22 07:33:45;;;;;;;46.08;13.10;;;;;;;11.45;100.00;101139.31;5035178;28;20044;-76
2022/10/22 07:36:16;;;;;;;50.20;13.65;;;;;;;11.51;100.00;101151.03;5035909;28;20029;-79
2022/10/22 07:38:46;;;;;;;48.47;11.95;;;;;;;11.58;100.00;101151.47;5036035;28;20052;-84
2022/10/22 07:41:13;;;;;;;46.15;12.63;;;;;;;11.53;100.00;101135.44;5035635;28;20036;-81
2022/10/22 07:43:38;;;;;;;47.05;13.35;;;;;;;11.72;100.00;101138.53;5035783;28;20025;-80
2022/10/22 07:46:04;;;;;;;56.03;13.95;;;;;;;11.94;100.00;101133.69;5035739;28;20527;-80
2022/10/22 07:48:29;;;;;;;62.28;13.68;;;;;;;12.22;100.00;101148.28;5035886;28;20400;-78
2022/10/22 07:50:57;;;;;;;54.53;14.30;;;;;;;12.40;100.00;101151.44;5017697;28;20385;-82
2022/10/22 07:53:23;;;;;;;44.80;12.55;;;;;;;12.28;100.00;101121.13;5035836;28;20262;-81
2022/10/22 07:55:49;;;;;;;47.20;12.20;;;;;;;12.64;100.00;101146.38;5035029;28;20501;-81
2022/10/22 07:58:15;;;;;;;48.08;12.65;;;;;;;12.74;100.00;101125.88;5035512;28;20033;-81
2022/10/22 08:00:41;;;;;;;32.90;10.70;;;;;;;13.13;100.00;101158.63;5035467;28;20025;-81
2022/10/22 08:03:09;;;;;;;34.80;9.20;;;;;;;13.32;100.00;101163.41;5035016;28;20025;-81
2022/10/22 08:05:34;;;;;;;43.95;9.68;;;;;;;13.44;100.00;101165.97;5035191;28;20044;-81
2022/10/22 08:08:00;;;;;;;27.40;7.20;;;;;;;13.52;100.00;101169.81;5035467;28;20462;-80
2022/10/22 08:10:25;;;;;;;31.45;6.88;;;;;;;13.58;100.00;101166.81;5035030;28;20431;-80
2022/10/22 08:12:50;;;;;;;27.42;7.43;;;;;;;13.67;100.00;101173.94;5035145;28;20461;-80
2022/10/22 08:15:16;;;;;;;27.92;7.95;;;;;;;13.70;100.00;101160.75;5035142;28;20503;-80
2022/10/22 08:17:41;;;;;;;29.30;7.15;;;;;;;13.78;100.00;101181.81;5035193;28;20466;-80
2022/10/22 08:20:07;;;;;;;44.92;8.32;;;;;;;13.70;100.00;101176.31;5034865;28;20485;-79
2022/10/22 08:22:32;;;;;;;33.58;7.25;;;;;;;13.71;100.00;101188.34;5034870;28;20041;-81
2022/10/22 08:24:59;;;;;;;25.75;7.35;;;;;;;13.63;100.00;101186.28;5034872;28;20065;-80
2022/10/22 08:27:24;;;;;;;29.42;7.05;;;;;;;13.63;100.00;101199.28;5035128;28;20116;-80
2022/10/22 08:29:50;;;;;;;35.92;6.80;;;;;;;13.56;100.00;101177.28;5034837;28;20516;-80
2022/10/22 08:32:15;;;;;;;28.33;7.15;;;;;;;13.56;100.00;101171.25;5034738;28;20030;-80
2022/10/22 08:34:41;;;;;;;30.20;6.45;;;;;;;13.74;100.00;101212.31;5034499;28;20033;-80
2022/10/22 08:37:07;;;;;;;30.00;7.50;;;;;;;13.38;100.00;101143.09;5034696;28;20026;-81
2022/10/22 08:39:32;;;;;;;35.00;6.57;;;;;;;13.75;100.00;101193.22;5034502;28;20026;-80
2022/10/22 08:42:13;;;;;;;33.17;6.55;;;;;;;14.10;100.00;101222.81;5034160;28;20049;-80
2022/10/22 08:44:54;;;;;;;34.07;5.97;;;;;;;14.19;100.00;101230.78;5033854;28;20026;-79
2022/10/22 08:47:38;;;;;;;31.35;6.65;;;;;;;14.29;100.00;101231.78;5016090;28;20045;-80
2022/10/22 08:50:04;;;;;;;35.92;7.00;;;;;;;14.37;100.00;101240.81;5034554;28;20147;-80
2022/10/22 08:52:32;;;;;;;22.80;6.03;;;;;;;14.46;100.00;101243.59;5034270;28;20477;-78
2022/10/22 08:55:00;;;;;;;25.88;6.35;;;;;;;14.57;100.00;101240.22;5033895;28;20448;-77
2022/10/22 08:58:00;;;;;;;32.90;6.60;;;;;;;14.62;100.00;101240.69;5034067;28;20045;-78
2022/10/22 09:00:32;;;;;;;31.65;6.45;;;;;;;14.63;100.00;101247.53;5015743;28;20052;-78
2022/10/22 09:03:03;;;;;;;;;;;;;;;14.72;100.00;101248.63;5034468;28;20051;-78
2022/10/22 09:05:52;;;;;;;27.85;5.88;;;;;;;14.64;100.00;101252.63;5033966;28;19913;-77
2022/10/22 09:08:19;;;;;;;35.15;7.20;;;;;;;14.60;100.00;101256.41;5033866;28;20457;-76
2022/10/22 09:10:54;;;;;;;30.98;6.38;;;;;;;14.47;100.00;101237.44;5033649;28;20052;-78
2022/10/22 09:13:22;;;;;;;27.80;5.72;;;;;;;14.70;100.00;101263.53;5033828;28;20385;-77
2022/10/22 09:15:56;;;;;;;31.98;6.75;;;;;;;14.76;100.00;101261.31;5033643;28;20515;-79
2022/10/22 09:18:58;;;;;;;27.15;6.40;;;;;;;14.82;100.00;101262.63;5033871;28;20021;-79
2022/10/22 09:21:51;;;;;;;30.50;6.25;;;;;;;14.88;100.00;101272.56;4972987;28;20131;-78
2022/10/22 09:24:44;;;;;;;33.60;6.38;;;;;;;14.91;100.00;101274.94;4972473;28;20376;-78
2022/10/22 09:27:13;;;;;;;27.48;6.45;;;;;;;14.63;100.00;101224.97;4955714;28;20484;-78
2022/10/22 09:29:39;;;;;;;33.28;5.97;;;;;;;14.78;100.00;101251.63;4972634;28;20030;-77
2022/10/22 09:32:04;;;;;;;25.05;6.60;;;;;;;14.99;100.00;101274.38;4972897;28;20046;-76
2022/10/22 09:34:31;;;;;;;32.58;7.22;;;;;;;15.02;100.00;101292.34;4972699;28;20090;-78
2022/10/22 09:36:58;;;;;;;29.90;6.50;;;;;;;15.02;100.00;101289.75;4972600;28;20023;-79
2022/10/22 09:39:27;;;;;;;26.88;6.70;;;;;;;14.98;100.00;101294.34;4972519;28;20038;-78
2022/10/22 09:41:52;;;;;;;25.20;6.82;;;;;;;15.01;100.00;101288.91;4972154;28;20039;-78
2022/10/22 09:44:19;;;;;;;28.35;7.00;;;;;;;15.02;100.00;101282.78;4972316;28;20051;-79
2022/10/22 09:46:44;;;;;;;30.25;7.80;;;;;;;15.00;100.00;101279.47;4972566;28;20431;-78
2022/10/22 09:49:17;;;;;;;31.00;7.75;;;;;;;15.23;100.00;101313.31;4972494;28;20184;-78
2022/10/22 09:51:55;;;;;;;31.75;7.55;;;;;;;15.30;100.00;101314.53;4972468;28;20483;-78
2022/10/22 09:54:33;;;;;;;26.58;7.38;;;;;;;15.30;100.00;101312.75;4972345;28;20328;-78
2022/10/22 09:57:15;;;;;;;27.63;7.18;;;;;;;15.28;100.00;101317.25;4984539;28;20489;-79
2022/10/22 09:59:42;;;;;;;24.70;7.03;;;;;;;15.14;100.00;101307.91;5015053;28;20129;-80
2022/10/22 10:02:12;;;;;;;34.80;8.27;;;;;;;15.17;100.00;101325.88;5033229;28;20022;-80
2022/10/22 10:04:46;;;;;;;32.25;7.30;;;;;;;15.03;100.00;101317.41;5023796;23;20058;-79
2022/10/22 10:07:19;;;;;;;30.85;7.22;;;;;;;15.18;100.00;101345.72;5013388;28;20026;-78
2022/10/22 10:09:45;;;;;;;19.10;6.15;;;;;;;15.10;100.00;101337.66;5013413;28;20025;-79
2022/10/22 10:12:18;;;;;;;29.55;7.05;;;;;;;14.83;100.00;101311.91;5013069;28;20544;-79
2022/10/22 10:14:59;;;;;;;31.40;7.18;;;;;;;14.75;100.00;101308.19;5013283;28;20030;-79
2022/10/22 10:17:32;;;;;;;;;;;;;;;15.04;100.00;101348.50;5013855;28;20096;-79
2022/10/22 10:20:45;;;;;;;35.97;7.78;;;;;;;15.20;100.00;101349.03;5013260;28;20008;-78
2022/10/22 10:23:59;;;;;;;27.13;6.35;;;;;;;15.49;100.00;101351.25;4933613;29;20046;-79
2022/10/22 10:26:47;;;;;;;34.00;6.40;;;;;;;15.68;99.47;101359.34;4895736;29;20072;-78
2022/10/22 10:29:22;;;;;;;25.40;7.15;;;;;;;15.86;98.61;101359.75;4895445;29;20033;-78
2022/10/22 10:31:55;;;;;;;26.17;6.53;;;;;;;15.92;97.59;101361.03;4895813;29;20045;-79
2022/10/22 10:34:36;;;;;;;19.67;6.75;;;;;;;15.99;97.64;101360.44;4895619;29;20134;-79
2022/10/22 10:37:21;;;;;;;27.42;7.00;;;;;;;16.06;96.87;101360.81;4895802;29;20052;-80
2022/10/22 10:40:14;;;;;;;28.65;7.47;;;;;;;15.83;96.54;101322.66;4895500;29;20101;-80
2022/10/22 10:42:39;;;;;;;23.73;5.55;;;;;;;16.00;95.79;101364.69;4895085;29;20041;-80
2022/10/22 10:45:16;;;;;;;27.52;7.05;;;;;;;15.92;96.33;101356.63;4895480;29;20129;-80
2022/10/22 10:48:09;;;;;;;30.55;6.32;;;;;;;15.92;98.19;101366.22;4895610;29;20036;-80
2022/10/22 10:50:57;;;;;;;29.80;6.45;;;;;;;15.96;97.61;101367.66;4895499;29;20501;-81
2022/10/22 10:54:01;;;;;;;27.15;7.25;;;;;;;15.89;96.28;101364.69;4858041;29;20061;-80
2022/10/22 10:56:35;;;;;;;31.63;7.47;;;;;;;15.78;97.05;101367.31;4839571;29;20129;-78
2022/10/22 10:59:14;;;;;;;29.73;7.10;;;;;;;15.74;97.47;101358.91;4856440;29;20132;-80
2022/10/22 11:02:20;;;;;;;35.65;7.78;;;;;;;15.95;97.97;101366.03;4858791;29;20046;-79
2022/10/22 11:05:17;;;;;;;26.67;7.82;;;;;;;16.15;96.11;101351.44;4895380;29;20055;-79
2022/10/22 11:07:54;;;;;;;28.33;8.00;;;;;;;16.25;92.85;101342.78;4896983;29;20044;-79
2022/10/22 11:10:25;;;;;;;28.05;6.18;;;;;;;16.71;95.41;101373.03;4899029;29;20040;-77
2022/10/22 11:13:01;;;;;;;24.55;6.85;;;;;;;17.01;93.09;101355.88;4898963;29;20076;-76
2022/10/22 11:15:36;;;;;;;28.02;8.90;;;;;;;17.43;90.80;101370.63;4898959;29;20043;-75
2022/10/22 11:18:13;;;;;;;26.90;8.40;;;;;;;17.48;88.17;101372.81;4898912;29;20127;-75
2022/10/22 11:20:53;;;;;;;27.52;8.32;;;;;;;17.65;86.94;101374.88;4898795;29;20482;-75
2022/10/22 11:23:29;;;;;;;34.20;7.60;;;;;;;17.64;87.24;101373.22;4898870;29;20089;-75
2022/10/22 11:25:54;;;;;;;22.23;8.13;;;;;;;17.62;86.03;101382.97;4898779;28;20028;-73
2022/10/22 11:28:29;;;;;;;26.40;8.05;;;;;;;17.56;86.76;101374.81;4898388;29;20188;-76
2022/10/22 11:31:01;;;;;;;30.65;8.57;;;;;;;17.48;86.32;101376.25;4953483;28;20042;-76